Wetterdaten: Woche 27.05.13 - 02.06.13 (KW22)
Datum Zeit Temp. Aussen +5cm Feuchte Auss Luftdruck Regen Sonnenschein Regendauer UV Solar Windben
27.05.2013 00:00 8,8 C 7,6 C 84 % 1010,5 hPa 0,0 l/m 0,00 h 0,00 h 0,0 UV-I 0 W/m 6,9 km/h (2 Bft)
27.05.2013 01:00 8,6 C 7,3 C 88 % 1010,4 hPa 0,0 l/m 0,00 h 0,00 h 0,0 UV-I 0 W/m 6,9 km/h (2 Bft)
27.05.2013 02:00 8,3 C 7,3 C 90 % 1010,2 hPa 0,0 l/m 0,00 h 0,00 h 0,0 UV-I 0 W/m 6,2 km/h (2 Bft)
27.05.2013 03:00 8,0 C 7,1 C 91 % 1009,9 hPa 0,0 l/m 0,00 h 0,00 h 0,0 UV-I 0 W/m 7,0 km/h (2 Bft)
27.05.2013 04:00 7,8 C 6,8 C 91 % 1009,9 hPa 0,0 l/m 0,00 h 0,00 h 0,0 UV-I 0 W/m 3,3 km/h (1 Bft)
27.05.2013 05:00 7,8 C 6,9 C 90 % 1009,8 hPa 0,0 l/m 0,07 h 0,00 h 0,0 UV-I 15 W/m 4,4 km/h (1 Bft)
27.05.2013 06:00 8,3 C 7,7 C 90 % 1009,9 hPa 0,0 l/m 0,00 h 0,00 h 0,0 UV-I 57 W/m 6,5 km/h (2 Bft)
27.05.2013 07:00 9,1 C 8,6 C 87 % 1010,0 hPa 0,0 l/m 0,00 h 0,00 h 0,0 UV-I 100 W/m 8,8 km/h (2 Bft)
27.05.2013 08:00 10,5 C 10,3 C 84 % 1010,1 hPa 0,0 l/m 0,83 h 0,00 h 0,6 UV-I 384 W/m 8,0 km/h (2 Bft)
27.05.2013 09:00 12,6 C 13,3 C 77 % 1010,1 hPa 0,0 l/m 0,93 h 0,00 h 1,1 UV-I 475 W/m 10,8 km/h (2 Bft)
27.05.2013 10:00 15,1 C 22,3 C 68 % 1010,2 hPa 0,0 l/m 1,00 h 0,00 h 2,5 UV-I 686 W/m 12,6 km/h (3 Bft)
27.05.2013 11:00 17,1 C 22,9 C 65 % 1010,2 hPa 0,0 l/m 1,00 h 0,00 h 3,5 UV-I 794 W/m 14,1 km/h (3 Bft)
27.05.2013 12:00 17,9 C 25,8 C 60 % 1010,1 hPa 0,0 l/m 1,00 h 0,00 h 4,1 UV-I 879 W/m 13,8 km/h (3 Bft)
27.05.2013 13:00 18,6 C 23,9 C 56 % 1009,9 hPa 0,0 l/m 0,80 h 0,00 h 2,4 UV-I 714 W/m 11,8 km/h (2 Bft)
27.05.2013 14:00 19,3 C 21,4 C 53 % 1009,3 hPa 0,0 l/m 0,87 h 0,00 h 3,9 UV-I 811 W/m 11,5 km/h (2 Bft)
27.05.2013 15:00 19,7 C 21,3 C 49 % 1009,2 hPa 0,0 l/m 0,93 h 0,00 h 3,2 UV-I 757 W/m 11,9 km/h (2 Bft)
27.05.2013 16:00 19,7 C 23,3 C 48 % 1008,9 hPa 0,0 l/m 0,70 h 0,00 h 1,9 UV-I 551 W/m 10,1 km/h (2 Bft)
27.05.2013 17:00 19,0 C 18,5 C 49 % 1008,6 hPa 0,0 l/m 0,30 h 0,00 h 0,7 UV-I 251 W/m 5,3 km/h (1 Bft)
27.05.2013 18:00 19,0 C 18,3 C 49 % 1008,3 hPa 0,0 l/m 0,17 h 0,00 h 0,5 UV-I 200 W/m 1,7 km/h (1 Bft)
27.05.2013 19:00 18,6 C 17,0 C 50 % 1008,1 hPa 0,0 l/m 0,00 h 0,00 h 0,0 UV-I 91 W/m 0,7 km/h (0 Bft)
27.05.2013 20:00 17,8 C 15,0 C 54 % 1008,0 hPa 0,0 l/m 0,00 h 0,00 h 0,0 UV-I 47 W/m 0,1 km/h (0 Bft)
27.05.2013 21:00 16,1 C 11,7 C 64 % 1007,9 hPa 0,0 l/m 0,00 h 0,00 h 0,0 UV-I 10 W/m 0,0 km/h (0 Bft)
27.05.2013 22:00 13,8 C 9,8 C 74 % 1007,7 hPa 0,0 l/m 0,00 h 0,00 h 0,0 UV-I 0 W/m 0,0 km/h (0 Bft)
27.05.2013 23:00 12,0 C 8,8 C 80 % 1007,7 hPa 0,0 l/m 0,00 h 0,00 h 0,0 UV-I 0 W/m 0,0 km/h (0 Bft)
28.05.2013 00:00 10,9 C 8,6 C 83 % 1007,6 hPa 0,0 l/m 0,00 h 0,00 h 0,0 UV-I 0 W/m 0,0 km/h (0 Bft)
28.05.2013 01:00 10,2 C 8,1 C 86 % 1007,5 hPa 0,0 l/m 0,00 h 0,00 h 0,0 UV-I 0 W/m 0,0 km/h (0 Bft)
28.05.2013 02:00 9,6 C 7,5 C 88 % 1007,3 hPa 0,0 l/m 0,00 h 0,00 h 0,0 UV-I 0 W/m 0,0 km/h (0 Bft)
28.05.2013 03:00 8,9 C 6,9 C 90 % 1006,8 hPa 0,0 l/m 0,00 h 0,00 h 0,0 UV-I 0 W/m 0,0 km/h (0 Bft)
28.05.2013 04:00 8,3 C 6,2 C 91 % 1006,3 hPa 0,0 l/m 0,00 h 0,00 h 0,0 UV-I 0 W/m 0,0 km/h (0 Bft)
28.05.2013 05:00 7,5 C 5,7 C 91 % 1005,9 hPa 0,0 l/m 0,00 h 0,00 h 0,0 UV-I 8 W/m 0,0 km/h (0 Bft)
28.05.2013 06:00 7,3 C 6,1 C 93 % 1005,6 hPa 0,0 l/m 0,00 h 0,00 h 0,0 UV-I 29 W/m 0,0 km/h (0 Bft)
28.05.2013 07:00 8,5 C 8,3 C 95 % 1005,2 hPa 0,0 l/m 0,10 h 0,00 h 0,0 UV-I 74 W/m 3,0 km/h (1 Bft)
28.05.2013 08:00 11,2 C 11,1 C 91 % 1005,0 hPa 0,0 l/m 1,00 h 0,00 h 0,5 UV-I 337 W/m 6,8 km/h (2 Bft)
28.05.2013 09:00 15,9 C 15,7 C 74 % 1004,6 hPa 0,0 l/m 1,00 h 0,00 h 1,1 UV-I 497 W/m 9,2 km/h (2 Bft)
28.05.2013 10:00 18,9 C 25,9 C 63 % 1004,1 hPa 0,0 l/m 1,00 h 0,00 h 2,2 UV-I 635 W/m 7,9 km/h (2 Bft)
28.05.2013 11:00 20,7 C 26,8 C 56 % 1003,5 hPa 0,0 l/m 1,00 h 0,00 h 3,3 UV-I 744 W/m 13,8 km/h (3 Bft)
28.05.2013 12:00 21,2 C 29,4 C 51 % 1002,8 hPa 0,0 l/m 1,00 h 0,00 h 3,9 UV-I 824 W/m 14,9 km/h (3 Bft)
28.05.2013 13:00 22,0 C 27,1 C 49 % 1002,1 hPa 0,0 l/m 0,83 h 0,00 h 2,6 UV-I 747 W/m 17,1 km/h (3 Bft)
28.05.2013 14:00 22,5 C 23,3 C 48 % 1001,5 hPa 0,0 l/m 0,80 h 0,00 h 3,9 UV-I 725 W/m 15,7 km/h (3 Bft)
28.05.2013 15:00 23,3 C 23,6 C 46 % 1000,6 hPa 0,0 l/m 0,93 h 0,00 h 3,6 UV-I 732 W/m 17,1 km/h (3 Bft)
28.05.2013 16:00 23,5 C 23,9 C 43 % 999,8 hPa 0,0 l/m 1,00 h 0,00 h 2,6 UV-I 665 W/m 13,8 km/h (3 Bft)
28.05.2013 17:00 23,2 C 21,8 C 43 % 999,4 hPa 0,0 l/m 1,00 h 0,00 h 1,6 UV-I 520 W/m 10,1 km/h (2 Bft)
28.05.2013 18:00 22,4 C 20,6 C 44 % 999,0 hPa 0,0 l/m 0,40 h 0,00 h 0,8 UV-I 203 W/m 10,2 km/h (2 Bft)
28.05.2013 19:00 21,9 C 19,4 C 47 % 998,6 hPa 0,0 l/m 0,00 h 0,00 h 0,0 UV-I 73 W/m 2,6 km/h (1 Bft)
28.05.2013 20:00 21,1 C 17,9 C 53 % 998,8 hPa 0,0 l/m 0,00 h 0,00 h 0,0 UV-I 19 W/m 4,5 km/h (1 Bft)
28.05.2013 21:00 17,5 C 15,2 C 71 % 1000,0 hPa 0,0 l/m 0,00 h 0,43 h 0,0 UV-I 5 W/m 7,2 km/h (2 Bft)
28.05.2013 22:00 15,8 C 13,8 C 79 % 1000,2 hPa 0,0 l/m 0,00 h 0,00 h 0,0 UV-I 0 W/m 3,3 km/h (1 Bft)
28.05.2013 23:00 14,8 C 13,3 C 83 % 1000,2 hPa 0,0 l/m 0,00 h 0,13 h 0,0 UV-I 0 W/m 2,7 km/h (1 Bft)
29.05.2013 00:00 14,1 C 12,9 C 88 % 1000,3 hPa 0,0 l/m 0,00 h 0,20 h 0,0 UV-I 0 W/m 4,8 km/h (1 Bft)
29.05.2013 01:00 13,1 C 12,0 C 89 % 1000,4 hPa 0,0 l/m 0,00 h 0,00 h 0,0 UV-I 0 W/m 6,7 km/h (2 Bft)
29.05.2013 02:00 12,6 C 11,5 C 91 % 1000,3 hPa 0,0 l/m 0,00 h 0,10 h 0,0 UV-I 0 W/m 9,9 km/h (2 Bft)
29.05.2013 03:00 12,1 C 11,0 C 93 % 999,9 hPa 0,0 l/m 0,00 h 0,27 h 0,0 UV-I 0 W/m 10,3 km/h (2 Bft)
29.05.2013 04:00 11,4 C 10,5 C 94 % 999,7 hPa 0,0 l/m 0,00 h 0,03 h 0,0 UV-I 0 W/m 10,4 km/h (2 Bft)
29.05.2013 05:00 11,1 C 10,2 C 95 % 999,6 hPa 0,0 l/m 0,00 h 0,03 h 0,0 UV-I 0 W/m 9,1 km/h (2 Bft)
29.05.2013 06:00 11,0 C 10,1 C 95 % 999,5 hPa 0,0 l/m 0,00 h 0,23 h 0,0 UV-I 7 W/m 5,9 km/h (2 Bft)
29.05.2013 07:00 10,9 C 9,9 C 96 % 999,4 hPa 0,2 l/m 0,00 h 0,83 h 0,0 UV-I 13 W/m 7,8 km/h (2 Bft)
29.05.2013 08:00 10,4 C 9,3 C 96 % 999,6 hPa 0,6 l/m 0,00 h 1,00 h 0,0 UV-I 24 W/m 8,9 km/h (2 Bft)
29.05.2013 09:00 9,5 C 8,9 C 96 % 999,9 hPa 1,0 l/m 0,00 h 1,00 h 0,0 UV-I 75 W/m 10,7 km/h (2 Bft)
29.05.2013 10:00 9,3 C 8,7 C 96 % 1000,0 hPa 3,0 l/m 0,00 h 1,00 h 0,0 UV-I 110 W/m 11,8 km/h (2 Bft)
29.05.2013 11:00 9,7 C 9,5 C 97 % 999,9 hPa 0,2 l/m 0,00 h 1,00 h 0,8 UV-I 165 W/m 13,5 km/h (3 Bft)
29.05.2013 12:00 9,7 C 9,0 C 97 % 1000,6 hPa 0,8 l/m 0,00 h 1,00 h 0,0 UV-I 76 W/m 7,5 km/h (2 Bft)
29.05.2013 13:00 9,7 C 9,0 C 96 % 1001,0 hPa 0,8 l/m 0,00 h 1,00 h 0,0 UV-I 73 W/m 8,3 km/h (2 Bft)
29.05.2013 14:00 9,8 C 9,2 C 96 % 1001,2 hPa 0,8 l/m 0,00 h 1,00 h 0,0 UV-I 88 W/m 8,0 km/h (2 Bft)
29.05.2013 15:00 10,0 C 9,3 C 97 % 1001,3 hPa 0,0 l/m 0,00 h 0,70 h 0,0 UV-I 97 W/m 9,9 km/h (2 Bft)
29.05.2013 16:00 10,0 C 9,1 C 96 % 1001,5 hPa 0,6 l/m 0,00 h 0,97 h 0,0 UV-I 74 W/m 10,4 km/h (2 Bft)
29.05.2013 17:00 10,1 C 9,1 C 97 % 1001,6 hPa 0,6 l/m 0,00 h 1,00 h 0,0 UV-I 54 W/m 6,9 km/h (2 Bft)
29.05.2013 18:00 10,2 C 9,6 C 97 % 1001,9 hPa 0,8 l/m 0,00 h 0,97 h 0,0 UV-I 48 W/m 2,2 km/h (1 Bft)
29.05.2013 19:00 10,2 C 9,4 C 97 % 1002,3 hPa 0,8 l/m 0,00 h 1,00 h 0,0 UV-I 40 W/m 3,3 km/h (1 Bft)
29.05.2013 20:00 10,1 C 9,0 C 97 % 1002,6 hPa 0,0 l/m 0,00 h 0,83 h 0,0 UV-I 22 W/m 3,2 km/h (1 Bft)
29.05.2013 21:00 9,8 C 9,0 C 97 % 1003,1 hPa 0,2 l/m 0,00 h 0,57 h 0,0 UV-I 5 W/m 1,9 km/h (1 Bft)
29.05.2013 22:00 9,7 C 8,7 C 97 % 1003,5 hPa 0,0 l/m 0,00 h 1,00 h 0,0 UV-I 0 W/m 0,7 km/h (0 Bft)
29.05.2013 23:00 9,5 C 8,4 C 98 % 1003,7 hPa 0,6 l/m 0,00 h 1,00 h 0,0 UV-I 0 W/m 1,8 km/h (1 Bft)
30.05.2013 00:00 9,4 C 8,4 C 98 % 1004,0 hPa 0,6 l/m 0,00 h 0,97 h 0,0 UV-I 0 W/m 1,9 km/h (1 Bft)
30.05.2013 01:00 9,3 C 8,4 C 98 % 1003,9 hPa 0,6 l/m 0,00 h 1,00 h 0,0 UV-I 0 W/m 3,0 km/h (1 Bft)
30.05.2013 02:00 9,1 C 8,1 C 98 % 1004,0 hPa 0,0 l/m 0,00 h 0,30 h 0,0 UV-I 0 W/m 3,5 km/h (1 Bft)
30.05.2013 03:00 8,8 C 7,9 C 98 % 1004,2 hPa 0,0 l/m 0,00 h 0,13 h 0,0 UV-I 0 W/m 1,5 km/h (1 Bft)
30.05.2013 04:00 8,7 C 7,9 C 98 % 1004,4 hPa 0,0 l/m 0,00 h 0,00 h 0,0 UV-I 0 W/m 1,4 km/h (1 Bft)
30.05.2013 05:00 8,6 C 7,9 C 98 % 1004,6 hPa 0,0 l/m 0,00 h 0,00 h 0,0 UV-I 8 W/m 2,7 km/h (1 Bft)
30.05.2013 06:00 8,6 C 7,9 C 98 % 1004,9 hPa 0,0 l/m 0,00 h 0,00 h 0,0 UV-I 40 W/m 3,0 km/h (1 Bft)
30.05.2013 07:00 9,0 C 8,7 C 98 % 1005,4 hPa 0,0 l/m 0,00 h 0,00 h 0,0 UV-I 86 W/m 2,8 km/h (1 Bft)
30.05.2013 08:00 9,9 C 10,0 C 98 % 1006,0 hPa 0,0 l/m 0,20 h 0,00 h 0,0 UV-I 199 W/m 6,5 km/h (2 Bft)
30.05.2013 09:00 10,9 C 11,3 C 91 % 1006,3 hPa 0,0 l/m 0,03 h 0,00 h 0,7 UV-I 260 W/m 7,3 km/h (2 Bft)
30.05.2013 10:00 12,9 C 15,6 C 84 % 1006,4 hPa 0,0 l/m 0,77 h 0,00 h 1,8 UV-I 485 W/m 6,9 km/h (2 Bft)
30.05.2013 11:00 14,0 C 15,7 C 78 % 1006,9 hPa 0,0 l/m 0,27 h 0,00 h 1,8 UV-I 431 W/m 8,1 km/h (2 Bft)
30.05.2013 12:00 14,0 C 16,4 C 76 % 1007,1 hPa 0,0 l/m 0,20 h 0,00 h 1,7 UV-I 420 W/m 9,2 km/h (2 Bft)
30.05.2013 13:00 14,1 C 15,0 C 74 % 1007,4 hPa 0,0 l/m 0,00 h 0,00 h 1,5 UV-I 325 W/m 8,5 km/h (2 Bft)
30.05.2013 14:00 15,2 C 16,5 C 71 % 1007,9 hPa 0,0 l/m 0,33 h 0,00 h 2,4 UV-I 558 W/m 11,8 km/h (2 Bft)
30.05.2013 15:00 15,8 C 17,4 C 68 % 1008,1 hPa 0,0 l/m 0,87 h 0,00 h 2,3 UV-I 464 W/m 11,8 km/h (2 Bft)
30.05.2013 16:00 15,7 C 17,3 C 68 % 1008,2 hPa 0,0 l/m 0,40 h 0,00 h 1,4 UV-I 372 W/m 8,9 km/h (2 Bft)
30.05.2013 17:00 15,6 C 16,6 C 67 % 1008,3 hPa 0,0 l/m 0,33 h 0,00 h 0,8 UV-I 322 W/m 7,5 km/h (2 Bft)
30.05.2013 18:00 15,5 C 15,1 C 66 % 1008,2 hPa 0,0 l/m 0,40 h 0,00 h 0,7 UV-I 262 W/m 4,1 km/h (1 Bft)
30.05.2013 19:00 14,9 C 14,2 C 67 % 1008,7 hPa 0,0 l/m 0,00 h 0,00 h 0,0 UV-I 64 W/m 3,6 km/h (1 Bft)
30.05.2013 20:00 14,6 C 13,3 C 73 % 1009,0 hPa 0,0 l/m 0,00 h 0,00 h 0,0 UV-I 41 W/m 3,9 km/h (1 Bft)
30.05.2013 21:00 14,2 C 11,9 C 77 % 1009,2 hPa 0,0 l/m 0,00 h 0,00 h 0,0 UV-I 12 W/m 0,0 km/h (0 Bft)
30.05.2013 22:00 13,0 C 9,9 C 81 % 1009,4 hPa 0,0 l/m 0,00 h 0,00 h 0,0 UV-I 0 W/m 0,0 km/h (0 Bft)
30.05.2013 23:00 11,7 C 9,0 C 84 % 1009,4 hPa 0,0 l/m 0,00 h 0,00 h 0,0 UV-I 0 W/m 0,0 km/h (0 Bft)
31.05.2013 00:00 11,1 C 9,8 C 86 % 1009,4 hPa 0,0 l/m 0,00 h 0,00 h 0,0 UV-I 0 W/m 0,3 km/h (0 Bft)
31.05.2013 01:00 11,2 C 10,1 C 87 % 1009,1 hPa 0,0 l/m 0,00 h 0,00 h 0,0 UV-I 0 W/m 0,7 km/h (0 Bft)
31.05.2013 02:00 11,4 C 10,1 C 90 % 1008,8 hPa 0,0 l/m 0,00 h 0,00 h 0,0 UV-I 0 W/m 2,4 km/h (1 Bft)
31.05.2013 03:00 11,5 C 10,6 C 94 % 1008,4 hPa 0,4 l/m 0,00 h 0,23 h 0,0 UV-I 0 W/m 9,1 km/h (2 Bft)
31.05.2013 04:00 11,8 C 10,7 C 96 % 1007,8 hPa 0,0 l/m 0,00 h 0,07 h 0,0 UV-I 0 W/m 7,4 km/h (2 Bft)
31.05.2013 05:00 12,1 C 10,7 C 97 % 1007,7 hPa 0,0 l/m 0,00 h 0,07 h 0,0 UV-I 7 W/m 13,4 km/h (3 Bft)
31.05.2013 06:00 12,3 C 11,2 C 97 % 1007,9 hPa 0,0 l/m 0,00 h 0,00 h 0,0 UV-I 22 W/m 15,4 km/h (3 Bft)
31.05.2013 07:00 12,7 C 11,7 C 97 % 1007,8 hPa 0,0 l/m 0,00 h 0,00 h 0,0 UV-I 68 W/m 14,8 km/h (3 Bft)
31.05.2013 08:00 13,1 C 12,6 C 96 % 1008,1 hPa 0,0 l/m 0,00 h 0,03 h 0,0 UV-I 81 W/m 12,4 km/h (3 Bft)
31.05.2013 09:00 13,8 C 13,2 C 93 % 1008,3 hPa 0,0 l/m 0,00 h 0,53 h 0,0 UV-I 114 W/m 13,7 km/h (3 Bft)
31.05.2013 10:00 15,3 C 15,7 C 87 % 1008,3 hPa 0,0 l/m 0,00 h 0,00 h 0,8 UV-I 246 W/m 18,1 km/h (3 Bft)
31.05.2013 11:00 17,3 C 17,4 C 75 % 1008,4 hPa 0,0 l/m 0,07 h 0,00 h 1,4 UV-I 308 W/m 22,6 km/h (4 Bft)
31.05.2013 12:00 19,9 C 20,9 C 64 % 1008,3 hPa 0,0 l/m 0,57 h 0,00 h 2,7 UV-I 508 W/m 30,3 km/h (5 Bft)
31.05.2013 13:00 21,1 C 22,2 C 61 % 1008,2 hPa 0,0 l/m 0,63 h 0,00 h 2,6 UV-I 549 W/m 31,6 km/h (5 Bft)
31.05.2013 14:00 21,8 C 22,0 C 59 % 1008,1 hPa 0,0 l/m 0,83 h 0,00 h 3,2 UV-I 608 W/m 31,1 km/h (5 Bft)
31.05.2013 15:00 22,3 C 22,5 C 57 % 1008,2 hPa 0,0 l/m 0,70 h 0,00 h 3,2 UV-I 652 W/m 32,1 km/h (5 Bft)
31.05.2013 16:00 21,5 C 21,4 C 58 % 1008,3 hPa 0,0 l/m 0,47 h 0,00 h 1,8 UV-I 422 W/m 32,2 km/h (5 Bft)
31.05.2013 17:00 21,4 C 20,6 C 58 % 1008,4 hPa 0,0 l/m 0,97 h 0,00 h 1,5 UV-I 528 W/m 32,1 km/h (5 Bft)
31.05.2013 18:00 20,6 C 19,4 C 59 % 1008,7 hPa 0,0 l/m 0,37 h 0,00 h 0,8 UV-I 222 W/m 31,7 km/h (5 Bft)
31.05.2013 19:00 19,6 C 18,2 C 63 % 1009,3 hPa 0,0 l/m 0,00 h 0,00 h 0,0 UV-I 65 W/m 29,8 km/h (5 Bft)
31.05.2013 20:00 18,2 C 16,9 C 70 % 1010,2 hPa 0,0 l/m 0,00 h 0,00 h 0,0 UV-I 34 W/m 26,5 km/h (4 Bft)
31.05.2013 21:00 17,3 C 15,8 C 74 % 1011,0 hPa 0,0 l/m 0,00 h 0,00 h 0,0 UV-I 5 W/m 20,9 km/h (4 Bft)
31.05.2013 22:00 16,0 C 14,4 C 77 % 1011,7 hPa 0,0 l/m 0,00 h 0,00 h 0,0 UV-I 0 W/m 19,5 km/h (3 Bft)
31.05.2013 23:00 14,3 C 12,5 C 82 % 1011,9 hPa 0,0 l/m 0,00 h 0,00 h 0,0 UV-I 0 W/m 13,6 km/h (3 Bft)
01.06.2013 00:00 12,9 C 11,8 C 87 % 1012,0 hPa 0,0 l/m 0,00 h 0,00 h 0,0 UV-I 0 W/m 14,6 km/h (3 Bft)
01.06.2013 01:00 12,6 C 11,8 C 88 % 1012,3 hPa 0,0 l/m 0,00 h 0,00 h 0,0 UV-I 0 W/m 7,8 km/h (2 Bft)
01.06.2013 02:00 12,3 C 11,3 C 89 % 1012,5 hPa 0,0 l/m 0,00 h 0,00 h 0,0 UV-I 0 W/m 6,5 km/h (2 Bft)
01.06.2013 03:00 12,2 C 11,2 C 90 % 1012,7 hPa 0,0 l/m 0,00 h 0,00 h 0,0 UV-I 0 W/m 7,4 km/h (2 Bft)
01.06.2013 04:00 11,9 C 11,0 C 90 % 1012,7 hPa 0,0 l/m 0,00 h 0,00 h 0,0 UV-I 0 W/m 12,8 km/h (3 Bft)
01.06.2013 05:00 11,4 C 10,7 C 90 % 1013,2 hPa 0,0 l/m 0,00 h 0,00 h 0,0 UV-I 5 W/m 12,8 km/h (3 Bft)
01.06.2013 06:00 11,2 C 10,7 C 91 % 1013,6 hPa 0,0 l/m 0,00 h 0,00 h 0,0 UV-I 20 W/m 9,2 km/h (2 Bft)
01.06.2013 07:00 11,3 C 10,9 C 90 % 1014,1 hPa 0,0 l/m 0,00 h 0,00 h 0,0 UV-I 55 W/m 10,0 km/h (2 Bft)
01.06.2013 08:00 11,3 C 10,9 C 91 % 1014,7 hPa 0,0 l/m 0,00 h 0,00 h 0,0 UV-I 53 W/m 11,6 km/h (2 Bft)
01.06.2013 09:00 11,4 C 11,3 C 91 % 1015,0 hPa 0,0 l/m 0,00 h 0,00 h 0,0 UV-I 95 W/m 9,1 km/h (2 Bft)
01.06.2013 10:00 11,7 C 11,9 C 90 % 1015,5 hPa 0,0 l/m 0,00 h 0,00 h 0,6 UV-I 145 W/m 12,9 km/h (3 Bft)
01.06.2013 11:00 12,5 C 13,1 C 87 % 1015,7 hPa 0,0 l/m 0,00 h 0,00 h 0,9 UV-I 218 W/m 15,9 km/h (3 Bft)
01.06.2013 12:00 13,2 C 14,2 C 85 % 1016,2 hPa 0,0 l/m 0,03 h 0,00 h 1,3 UV-I 265 W/m 12,0 km/h (2 Bft)
01.06.2013 13:00 13,6 C 14,8 C 83 % 1016,6 hPa 0,0 l/m 0,00 h 0,00 h 1,2 UV-I 280 W/m 16,0 km/h (3 Bft)
01.06.2013 14:00 13,7 C 14,8 C 83 % 1017,1 hPa 0,0 l/m 0,00 h 0,00 h 1,2 UV-I 283 W/m 14,5 km/h (3 Bft)
01.06.2013 15:00 13,5 C 14,2 C 83 % 1017,3 hPa 0,0 l/m 0,00 h 0,00 h 0,8 UV-I 233 W/m 17,2 km/h (3 Bft)
01.06.2013 16:00 13,9 C 14,4 C 82 % 1017,6 hPa 0,0 l/m 0,00 h 0,00 h 0,6 UV-I 215 W/m 13,9 km/h (3 Bft)
01.06.2013 17:00 13,5 C 13,7 C 82 % 1017,8 hPa 0,0 l/m 0,17 h 0,00 h 0,6 UV-I 226 W/m 20,0 km/h (4 Bft)
01.06.2013 18:00 13,9 C 14,2 C 81 % 1017,9 hPa 0,0 l/m 0,47 h 0,00 h 0,5 UV-I 254 W/m 20,1 km/h (4 Bft)
01.06.2013 19:00 13,9 C 13,1 C 80 % 1018,4 hPa 0,0 l/m 0,00 h 0,00 h 0,0 UV-I 89 W/m 22,8 km/h (4 Bft)
01.06.2013 20:00 12,5 C 11,5 C 84 % 1019,2 hPa 0,0 l/m 0,00 h 0,00 h 0,0 UV-I 19 W/m 23,1 km/h (4 Bft)
01.06.2013 21:00 11,5 C 10,7 C 87 % 1020,0 hPa 0,0 l/m 0,00 h 0,00 h 0,0 UV-I 5 W/m 15,3 km/h (3 Bft)
01.06.2013 22:00 11,2 C 10,4 C 87 % 1020,6 hPa 0,0 l/m 0,00 h 0,00 h 0,0 UV-I 0 W/m 8,8 km/h (2 Bft)
01.06.2013 23:00 10,5 C 8,8 C 87 % 1021,0 hPa 0,0 l/m 0,00 h 0,00 h 0,0 UV-I 0 W/m 1,4 km/h (1 Bft)
02.06.2013 00:00 9,4 C 8,0 C 89 % 1021,4 hPa 0,0 l/m 0,00 h 0,00 h 0,0 UV-I 0 W/m 5,0 km/h (1 Bft)
02.06.2013 01:00 9,1 C 8,4 C 91 % 1021,9 hPa 0,0 l/m 0,00 h 0,00 h 0,0 UV-I 0 W/m 12,2 km/h (2 Bft)
02.06.2013 02:00 8,7 C 7,0 C 91 % 1022,2 hPa 0,0 l/m 0,00 h 0,00 h 0,0 UV-I 0 W/m 3,0 km/h (1 Bft)
02.06.2013 03:00 7,7 C 5,5 C 91 % 1022,2 hPa 0,0 l/m 0,00 h 0,00 h 0,0 UV-I 0 W/m 0,1 km/h (0 Bft)
02.06.2013 04:00 6,7 C 4,8 C 91 % 1022,5 hPa 0,0 l/m 0,00 h 0,00 h 0,0 UV-I 0 W/m 0,0 km/h (0 Bft)
02.06.2013 05:00 6,2 C 5,2 C 93 % 1022,8 hPa 0,0 l/m 0,00 h 0,00 h 0,0 UV-I 10 W/m 0,0 km/h (0 Bft)
02.06.2013 06:00 6,3 C 5,5 C 95 % 1023,2 hPa 0,0 l/m 0,00 h 0,00 h 0,0 UV-I 34 W/m 0,3 km/h (0 Bft)
02.06.2013 07:00 7,1 C 7,2 C 96 % 1023,5 hPa 0,0 l/m 0,03 h 0,00 h 0,0 UV-I 96 W/m 6,4 km/h (2 Bft)
02.06.2013 08:00 8,4 C 9,0 C 96 % 1023,8 hPa 0,0 l/m 0,23 h 0,00 h 0,7 UV-I 186 W/m 14,1 km/h (3 Bft)
02.06.2013 09:00 10,5 C 11,2 C 84 % 1024,0 hPa 0,0 l/m 0,73 h 0,00 h 1,3 UV-I 486 W/m 16,8 km/h (3 Bft)
02.06.2013 10:00 12,5 C 17,9 C 70 % 1023,8 hPa 0,0 l/m 0,77 h 0,00 h 2,2 UV-I 592 W/m 19,0 km/h (3 Bft)
02.06.2013 11:00 14,1 C 19,4 C 61 % 1023,9 hPa 0,0 l/m 1,00 h 0,00 h 3,6 UV-I 778 W/m 23,3 km/h (4 Bft)
02.06.2013 12:00 15,2 C 22,2 C 57 % 1024,1 hPa 0,0 l/m 1,00 h 0,00 h 4,2 UV-I 843 W/m 22,1 km/h (4 Bft)
02.06.2013 13:00 16,4 C 21,1 C 51 % 1024,2 hPa 0,0 l/m 1,00 h 0,00 h 2,6 UV-I 843 W/m 21,1 km/h (4 Bft)
02.06.2013 14:00 17,3 C 18,8 C 49 % 1024,2 hPa 0,0 l/m 1,00 h 0,00 h 4,6 UV-I 826 W/m 22,6 km/h (4 Bft)
02.06.2013 15:00 17,8 C 18,6 C 48 % 1024,1 hPa 0,0 l/m 1,00 h 0,00 h 4,0 UV-I 798 W/m 23,1 km/h (4 Bft)
02.06.2013 16:00 17,9 C 18,7 C 50 % 1024,3 hPa 0,0 l/m 0,90 h 0,00 h 2,5 UV-I 697 W/m 25,0 km/h (4 Bft)
02.06.2013 17:00 17,6 C 17,4 C 51 % 1024,5 hPa 0,0 l/m 0,73 h 0,00 h 1,3 UV-I 516 W/m 24,8 km/h (4 Bft)
02.06.2013 18:00 17,3 C 16,6 C 52 % 1024,6 hPa 0,0 l/m 0,30 h 0,00 h 0,8 UV-I 231 W/m 22,9 km/h (4 Bft)
02.06.2013 19:00 16,8 C 15,8 C 53 % 1024,7 hPa 0,0 l/m 0,00 h 0,00 h 0,0 UV-I 76 W/m 25,2 km/h (4 Bft)
02.06.2013 20:00 15,8 C 14,7 C 56 % 1025,1 hPa 0,0 l/m 0,00 h 0,00 h 0,0 UV-I 50 W/m 19,6 km/h (3 Bft)
02.06.2013 21:00 14,4 C 13,1 C 61 % 1025,7 hPa 0,0 l/m 0,07 h 0,00 h 0,0 UV-I 16 W/m 18,4 km/h (3 Bft)
02.06.2013 22:00 13,0 C 11,5 C 66 % 1026,5 hPa 0,0 l/m 0,00 h 0,00 h 0,0 UV-I 0 W/m 14,0 km/h (3 Bft)
02.06.2013 23:00 12,0 C 10,4 C 68 % 1027,1 hPa 0,0 l/m 0,00 h 0,00 h 0,0 UV-I 0 W/m 6,8 km/h (2 Bft)
Min-Datum _ 02.06.13 02.06.13 28.05.13 28.05.13 - - - - - 27.05.13
_ Min-Zeit 05:02 04:16 17:08 19:50 - - - - - 00:02
Minimum _ 6,2 C 4,6 C 40 % 998,5 hPa - - - - - 0,0 km/h (0 Bft)
Max-Datum _ 28.05.13 28.05.13 29.05.13 02.06.13 29.05.13 27.05.13 28.05.13 30.05.13 30.05.13 02.06.13
_ Max-Zeit 17:02 12:32 22:58 23:56 10:02 05:48 21:14 12:20 12:22 17:36
Maximum _ 23,8 C 30,7 C 98 % 1027,3 hPa 3,0 l/m 0,03 h 0,03 h 5,1 UV-I 1192 W/m 48,9 km/h
N-NW (6 Bft)
Durchschnitt _ 13,4 C 13,2 C 79 % 1009,8 hPa #12,6 l/m #36:30 h #20:46 h 1,9 UV-I 279 W/m 10,3 km/h (2 Bft)
© 2013 W. Hausmann